sensor_id;sensor_type;location;lat;lon;timestamp;P1;durP1;ratioP1;P2;durP2;ratioP2
12363;SDS011;6246;50.826;4.712;2023-06-10T00:01:13;4.65;;;4.25;;
12363;SDS011;6246;50.826;4.712;2023-06-10T00:03:39;5.30;;;4.70;;
12363;SDS011;6246;50.826;4.712;2023-06-10T00:06:06;4.95;;;4.55;;
12363;SDS011;6246;50.826;4.712;2023-06-10T00:08:32;5.10;;;4.60;;
12363;SDS011;6246;50.826;4.712;2023-06-10T00:10:58;5.55;;;4.45;;
12363;SDS011;6246;50.826;4.712;2023-06-10T00:13:25;5.45;;;4.60;;
12363;SDS011;6246;50.826;4.712;2023-06-10T00:15:51;4.90;;;4.50;;
12363;SDS011;6246;50.826;4.712;2023-06-10T00:18:17;4.90;;;4.43;;
12363;SDS011;6246;50.826;4.712;2023-06-10T00:20:43;5.03;;;4.63;;
12363;SDS011;6246;50.826;4.712;2023-06-10T00:23:09;6.22;;;4.80;;
12363;SDS011;6246;50.826;4.712;2023-06-10T00:25:36;5.00;;;4.55;;
12363;SDS011;6246;50.826;4.712;2023-06-10T00:28:02;5.00;;;4.60;;
12363;SDS011;6246;50.826;4.712;2023-06-10T00:30:28;5.30;;;4.78;;
12363;SDS011;6246;50.826;4.712;2023-06-10T00:32:54;5.30;;;4.90;;
12363;SDS011;6246;50.826;4.712;2023-06-10T00:35:20;5.82;;;4.70;;
12363;SDS011;6246;50.826;4.712;2023-06-10T00:37:46;5.18;;;4.68;;
12363;SDS011;6246;50.826;4.712;2023-06-10T00:40:12;5.43;;;4.93;;
12363;SDS011;6246;50.826;4.712;2023-06-10T00:42:38;5.93;;;4.72;;
12363;SDS011;6246;50.826;4.712;2023-06-10T00:45:05;4.97;;;4.53;;
12363;SDS011;6246;50.826;4.712;2023-06-10T00:47:31;5.10;;;4.70;;
12363;SDS011;6246;50.826;4.712;2023-06-10T00:49:58;5.40;;;4.88;;
12363;SDS011;6246;50.826;4.712;2023-06-10T00:52:25;5.40;;;4.78;;
12363;SDS011;6246;50.826;4.712;2023-06-10T00:54:53;5.03;;;4.63;;
12363;SDS011;6246;50.826;4.712;2023-06-10T00:57:19;5.13;;;4.72;;
12363;SDS011;6246;50.826;4.712;2023-06-10T00:59:47;5.88;;;5.00;;
12363;SDS011;6246;50.826;4.712;2023-06-10T01:02:13;4.80;;;4.40;;
12363;SDS011;6246;50.826;4.712;2023-06-10T01:04:39;4.97;;;4.50;;
12363;SDS011;6246;50.826;4.712;2023-06-10T01:09:39;5.00;;;4.60;;
12363;SDS011;6246;50.826;4.712;2023-06-10T01:14:34;5.30;;;4.90;;
12363;SDS011;6246;50.826;4.712;2023-06-10T01:17:00;5.05;;;4.60;;
12363;SDS011;6246;50.826;4.712;2023-06-10T01:19:28;5.25;;;4.75;;
12363;SDS011;6246;50.826;4.712;2023-06-10T01:21:56;5.22;;;4.53;;
12363;SDS011;6246;50.826;4.712;2023-06-10T01:24:26;4.85;;;4.45;;
12363;SDS011;6246;50.826;4.712;2023-06-10T01:26:52;5.32;;;4.82;;
12363;SDS011;6246;50.826;4.712;2023-06-10T01:29:21;5.03;;;4.53;;
12363;SDS011;6246;50.826;4.712;2023-06-10T01:31:55;5.30;;;4.78;;
12363;SDS011;6246;50.826;4.712;2023-06-10T01:34:24;5.65;;;4.57;;
12363;SDS011;6246;50.826;4.712;2023-06-10T01:36:51;5.00;;;4.60;;
12363;SDS011;6246;50.826;4.712;2023-06-10T01:39:19;5.25;;;4.78;;
12363;SDS011;6246;50.826;4.712;2023-06-10T01:41:47;5.35;;;4.85;;
12363;SDS011;6246;50.826;4.712;2023-06-10T01:44:16;5.45;;;4.95;;
12363;SDS011;6246;50.826;4.712;2023-06-10T01:46:43;5.38;;;4.88;;
12363;SDS011;6246;50.826;4.712;2023-06-10T01:49:09;4.80;;;4.40;;
12363;SDS011;6246;50.826;4.712;2023-06-10T01:51:35;5.40;;;4.90;;
12363;SDS011;6246;50.826;4.712;2023-06-10T01:54:01;5.20;;;4.80;;
12363;SDS011;6246;50.826;4.712;2023-06-10T01:56:27;4.70;;;4.40;;
12363;SDS011;6246;50.826;4.712;2023-06-10T01:58:53;5.30;;;4.80;;
12363;SDS011;6246;50.826;4.712;2023-06-10T02:01:23;5.15;;;4.75;;
12363;SDS011;6246;50.826;4.712;2023-06-10T02:03:49;5.70;;;5.20;;
12363;SDS011;6246;50.826;4.712;2023-06-10T02:06:15;5.28;;;4.88;;
12363;SDS011;6246;50.826;4.712;2023-06-10T02:08:41;5.43;;;4.93;;
12363;SDS011;6246;50.826;4.712;2023-06-10T02:11:07;4.97;;;4.57;;
12363;SDS011;6246;50.826;4.712;2023-06-10T02:13:34;6.22;;;4.85;;
12363;SDS011;6246;50.826;4.712;2023-06-10T02:16:00;5.50;;;4.95;;
12363;SDS011;6246;50.826;4.712;2023-06-10T02:18:26;5.10;;;4.70;;
12363;SDS011;6246;50.826;4.712;2023-06-10T02:20:53;5.22;;;4.68;;
12363;SDS011;6246;50.826;4.712;2023-06-10T02:23:19;5.70;;;5.20;;
12363;SDS011;6246;50.826;4.712;2023-06-10T02:25:45;5.47;;;4.88;;
12363;SDS011;6246;50.826;4.712;2023-06-10T02:28:13;4.93;;;4.53;;
12363;SDS011;6246;50.826;4.712;2023-06-10T02:30:42;5.30;;;4.80;;
12363;SDS011;6246;50.826;4.712;2023-06-10T02:33:08;5.90;;;5.03;;
12363;SDS011;6246;50.826;4.712;2023-06-10T02:35:36;5.30;;;4.80;;
12363;SDS011;6246;50.826;4.712;2023-06-10T02:38:02;5.60;;;5.10;;
12363;SDS011;6246;50.826;4.712;2023-06-10T02:40:29;5.30;;;4.90;;
12363;SDS011;6246;50.826;4.712;2023-06-10T02:42:55;5.25;;;4.75;;
12363;SDS011;6246;50.826;4.712;2023-06-10T02:45:21;6.90;;;5.10;;
12363;SDS011;6246;50.826;4.712;2023-06-10T02:47:47;5.75;;;5.15;;
12363;SDS011;6246;50.826;4.712;2023-06-10T02:50:13;5.25;;;4.75;;
12363;SDS011;6246;50.826;4.712;2023-06-10T02:52:39;5.20;;;4.72;;
12363;SDS011;6246;50.826;4.712;2023-06-10T02:55:05;6.55;;;5.05;;
12363;SDS011;6246;50.826;4.712;2023-06-10T02:57:31;5.38;;;4.90;;
12363;SDS011;6246;50.826;4.712;2023-06-10T02:59:57;5.50;;;5.00;;
12363;SDS011;6246;50.826;4.712;2023-06-10T03:02:24;6.65;;;5.20;;
12363;SDS011;6246;50.826;4.712;2023-06-10T03:04:56;5.35;;;4.85;;
12363;SDS011;6246;50.826;4.712;2023-06-10T03:07:22;6.07;;;5.50;;
12363;SDS011;6246;50.826;4.712;2023-06-10T03:09:48;5.00;;;4.60;;
12363;SDS011;6246;50.826;4.712;2023-06-10T03:12:14;5.93;;;5.32;;
12363;SDS011;6246;50.826;4.712;2023-06-10T03:14:41;5.40;;;4.90;;
12363;SDS011;6246;50.826;4.712;2023-06-10T03:17:07;5.25;;;4.80;;
12363;SDS011;6246;50.826;4.712;2023-06-10T03:19:33;5.18;;;4.68;;
12363;SDS011;6246;50.826;4.712;2023-06-10T03:22:07;5.88;;;4.88;;
12363;SDS011;6246;50.826;4.712;2023-06-10T03:24:33;5.50;;;5.00;;
12363;SDS011;6246;50.826;4.712;2023-06-10T03:27:00;5.53;;;5.03;;
12363;SDS011;6246;50.826;4.712;2023-06-10T03:29:27;5.53;;;5.10;;
12363;SDS011;6246;50.826;4.712;2023-06-10T03:31:53;5.65;;;5.15;;
12363;SDS011;6246;50.826;4.712;2023-06-10T03:34:19;5.60;;;5.10;;
12363;SDS011;6246;50.826;4.712;2023-06-10T03:36:45;5.60;;;5.10;;
12363;SDS011;6246;50.826;4.712;2023-06-10T03:39:11;5.68;;;5.18;;
12363;SDS011;6246;50.826;4.712;2023-06-10T03:41:37;5.68;;;5.13;;
12363;SDS011;6246;50.826;4.712;2023-06-10T03:44:03;5.22;;;4.78;;
12363;SDS011;6246;50.826;4.712;2023-06-10T03:46:29;5.70;;;5.18;;
12363;SDS011;6246;50.826;4.712;2023-06-10T03:48:55;5.90;;;5.38;;
12363;SDS011;6246;50.826;4.712;2023-06-10T03:51:21;5.80;;;5.25;;
12363;SDS011;6246;50.826;4.712;2023-06-10T03:53:47;5.68;;;5.18;;
12363;SDS011;6246;50.826;4.712;2023-06-10T03:56:13;6.05;;;5.45;;
12363;SDS011;6246;50.826;4.712;2023-06-10T03:58:39;6.22;;;5.47;;
12363;SDS011;6246;50.826;4.712;2023-06-10T04:01:05;5.38;;;4.95;;
12363;SDS011;6246;50.826;4.712;2023-06-10T04:03:32;5.70;;;5.22;;
12363;SDS011;6246;50.826;4.712;2023-06-10T04:05:59;6.20;;;5.60;;
12363;SDS011;6246;50.826;4.712;2023-06-10T04:08:25;5.85;;;5.22;;
12363;SDS011;6246;50.826;4.712;2023-06-10T04:10:51;5.50;;;5.00;;
12363;SDS011;6246;50.826;4.712;2023-06-10T04:13:17;5.35;;;4.95;;
12363;SDS011;6246;50.826;4.712;2023-06-10T04:15:44;6.18;;;5.57;;
12363;SDS011;6246;50.826;4.712;2023-06-10T04:18:10;6.40;;;5.80;;
12363;SDS011;6246;50.826;4.712;2023-06-10T04:20:36;5.90;;;5.30;;
12363;SDS011;6246;50.826;4.712;2023-06-10T04:23:02;5.70;;;5.20;;
12363;SDS011;6246;50.826;4.712;2023-06-10T04:25:29;5.53;;;5.03;;
12363;SDS011;6246;50.826;4.712;2023-06-10T04:27:55;5.88;;;5.38;;
12363;SDS011;6246;50.826;4.712;2023-06-10T04:30:21;6.97;;;5.82;;
12363;SDS011;6246;50.826;4.712;2023-06-10T04:32:47;5.70;;;5.20;;
12363;SDS011;6246;50.826;4.712;2023-06-10T04:35:14;6.03;;;5.43;;
12363;SDS011;6246;50.826;4.712;2023-06-10T04:37:40;6.43;;;5.63;;
12363;SDS011;6246;50.826;4.712;2023-06-10T04:40:07;7.28;;;5.70;;
12363;SDS011;6246;50.826;4.712;2023-06-10T04:42:34;5.70;;;5.20;;
12363;SDS011;6246;50.826;4.712;2023-06-10T04:45:00;6.13;;;5.63;;
12363;SDS011;6246;50.826;4.712;2023-06-10T04:47:27;6.18;;;5.60;;
12363;SDS011;6246;50.826;4.712;2023-06-10T04:49:53;5.85;;;5.28;;
12363;SDS011;6246;50.826;4.712;2023-06-10T04:52:19;6.15;;;5.65;;
12363;SDS011;6246;50.826;4.712;2023-06-10T04:54:46;5.75;;;5.25;;
12363;SDS011;6246;50.826;4.712;2023-06-10T04:57:13;6.03;;;5.43;;
12363;SDS011;6246;50.826;4.712;2023-06-10T04:59:39;5.70;;;5.22;;
12363;SDS011;6246;50.826;4.712;2023-06-10T05:02:05;5.85;;;5.35;;
12363;SDS011;6246;50.826;4.712;2023-06-10T05:04:31;6.43;;;5.82;;
12363;SDS011;6246;50.826;4.712;2023-06-10T05:06:57;6.30;;;5.63;;
12363;SDS011;6246;50.826;4.712;2023-06-10T05:09:23;6.65;;;5.95;;
12363;SDS011;6246;50.826;4.712;2023-06-10T05:11:50;6.10;;;5.50;;
12363;SDS011;6246;50.826;4.712;2023-06-10T05:14:18;6.40;;;5.82;;
12363;SDS011;6246;50.826;4.712;2023-06-10T05:16:46;6.63;;;6.00;;
12363;SDS011;6246;50.826;4.712;2023-06-10T05:19:12;5.88;;;5.38;;
12363;SDS011;6246;50.826;4.712;2023-06-10T05:21:38;5.43;;;4.93;;
12363;SDS011;6246;50.826;4.712;2023-06-10T05:24:04;5.20;;;4.80;;
12363;SDS011;6246;50.826;4.712;2023-06-10T05:26:30;6.13;;;5.53;;
12363;SDS011;6246;50.826;4.712;2023-06-10T05:29:02;7.25;;;5.30;;
12363;SDS011;6246;50.826;4.712;2023-06-10T05:31:28;5.75;;;5.25;;
12363;SDS011;6246;50.826;4.712;2023-06-10T05:33:54;5.95;;;5.35;;
12363;SDS011;6246;50.826;4.712;2023-06-10T05:36:20;5.45;;;4.93;;
12363;SDS011;6246;50.826;4.712;2023-06-10T05:38:46;6.28;;;5.30;;
12363;SDS011;6246;50.826;4.712;2023-06-10T05:41:12;6.25;;;5.65;;
12363;SDS011;6246;50.826;4.712;2023-06-10T05:43:38;5.40;;;4.97;;
12363;SDS011;6246;50.826;4.712;2023-06-10T05:46:05;5.88;;;5.38;;
12363;SDS011;6246;50.826;4.712;2023-06-10T05:48:31;5.35;;;4.95;;
12363;SDS011;6246;50.826;4.712;2023-06-10T05:50:57;6.35;;;5.75;;
12363;SDS011;6246;50.826;4.712;2023-06-10T05:53:23;5.30;;;4.85;;
12363;SDS011;6246;50.826;4.712;2023-06-10T05:55:49;6.47;;;5.88;;
12363;SDS011;6246;50.826;4.712;2023-06-10T05:58:16;5.80;;;5.28;;
12363;SDS011;6246;50.826;4.712;2023-06-10T06:00:42;7.45;;;5.70;;
12363;SDS011;6246;50.826;4.712;2023-06-10T06:03:08;6.47;;;5.40;;
12363;SDS011;6246;50.826;4.712;2023-06-10T06:05:35;5.70;;;5.20;;
12363;SDS011;6246;50.826;4.712;2023-06-10T06:08:02;6.28;;;5.68;;
12363;SDS011;6246;50.826;4.712;2023-06-10T06:10:28;5.82;;;5.25;;
12363;SDS011;6246;50.826;4.712;2023-06-10T06:12:55;5.85;;;5.35;;
12363;SDS011;6246;50.826;4.712;2023-06-10T06:15:21;5.80;;;5.30;;
12363;SDS011;6246;50.826;4.712;2023-06-10T06:17:47;6.47;;;5.72;;
12363;SDS011;6246;50.826;4.712;2023-06-10T06:20:13;6.00;;;5.50;;
12363;SDS011;6246;50.826;4.712;2023-06-10T06:22:39;5.95;;;5.43;;
12363;SDS011;6246;50.826;4.712;2023-06-10T06:25:05;6.72;;;6.13;;
12363;SDS011;6246;50.826;4.712;2023-06-10T06:27:32;5.45;;;4.95;;
12363;SDS011;6246;50.826;4.712;2023-06-10T06:29:58;6.07;;;5.47;;
12363;SDS011;6246;50.826;4.712;2023-06-10T06:32:24;5.55;;;5.05;;
12363;SDS011;6246;50.826;4.712;2023-06-10T06:34:52;5.75;;;5.25;;
12363;SDS011;6246;50.826;4.712;2023-06-10T06:37:22;6.28;;;5.70;;
12363;SDS011;6246;50.826;4.712;2023-06-10T06:39:51;6.20;;;5.60;;
12363;SDS011;6246;50.826;4.712;2023-06-10T06:42:18;5.75;;;5.25;;
12363;SDS011;6246;50.826;4.712;2023-06-10T06:44:44;5.72;;;5.22;;
12363;SDS011;6246;50.826;4.712;2023-06-10T06:47:10;6.80;;;5.60;;
12363;SDS011;6246;50.826;4.712;2023-06-10T06:49:36;5.72;;;5.22;;
12363;SDS011;6246;50.826;4.712;2023-06-10T06:52:02;5.97;;;5.40;;
12363;SDS011;6246;50.826;4.712;2023-06-10T06:54:28;6.90;;;6.13;;
12363;SDS011;6246;50.826;4.712;2023-06-10T06:56:54;6.35;;;5.60;;
12363;SDS011;6246;50.826;4.712;2023-06-10T06:59:20;6.40;;;5.72;;
12363;SDS011;6246;50.826;4.712;2023-06-10T07:01:46;5.90;;;5.40;;
12363;SDS011;6246;50.826;4.712;2023-06-10T07:04:14;5.78;;;5.22;;
12363;SDS011;6246;50.826;4.712;2023-06-10T07:06:40;5.93;;;5.22;;
12363;SDS011;6246;50.826;4.712;2023-06-10T07:09:07;9.00;;;5.32;;
12363;SDS011;6246;50.826;4.712;2023-06-10T07:11:34;5.53;;;5.03;;
12363;SDS011;6246;50.826;4.712;2023-06-10T07:14:00;5.88;;;5.38;;
12363;SDS011;6246;50.826;4.712;2023-06-10T07:16:26;5.82;;;5.25;;
12363;SDS011;6246;50.826;4.712;2023-06-10T07:18:52;6.07;;;5.47;;
12363;SDS011;6246;50.826;4.712;2023-06-10T07:21:18;5.70;;;5.20;;
12363;SDS011;6246;50.826;4.712;2023-06-10T07:23:45;5.93;;;5.35;;
12363;SDS011;6246;50.826;4.712;2023-06-10T07:26:11;6.57;;;5.85;;
12363;SDS011;6246;50.826;4.712;2023-06-10T07:28:39;6.20;;;5.30;;
12363;SDS011;6246;50.826;4.712;2023-06-10T07:31:05;5.97;;;5.38;;
12363;SDS011;6246;50.826;4.712;2023-06-10T07:33:31;6.10;;;5.15;;
12363;SDS011;6246;50.826;4.712;2023-06-10T07:35:57;5.82;;;5.32;;
12363;SDS011;6246;50.826;4.712;2023-06-10T07:38:23;5.45;;;5.05;;
12363;SDS011;6246;50.826;4.712;2023-06-10T07:40:49;5.32;;;4.93;;
12363;SDS011;6246;50.826;4.712;2023-06-10T07:43:15;5.85;;;5.32;;
12363;SDS011;6246;50.826;4.712;2023-06-10T07:45:41;5.57;;;5.07;;
12363;SDS011;6246;50.826;4.712;2023-06-10T07:48:07;5.70;;;5.20;;
12363;SDS011;6246;50.826;4.712;2023-06-10T07:50:33;6.75;;;5.40;;
12363;SDS011;6246;50.826;4.712;2023-06-10T07:52:59;5.57;;;5.07;;
12363;SDS011;6246;50.826;4.712;2023-06-10T07:55:25;5.80;;;5.30;;
12363;SDS011;6246;50.826;4.712;2023-06-10T07:57:51;5.50;;;5.00;;
12363;SDS011;6246;50.826;4.712;2023-06-10T08:00:18;5.60;;;5.10;;
12363;SDS011;6246;50.826;4.712;2023-06-10T08:02:44;5.30;;;4.78;;
12363;SDS011;6246;50.826;4.712;2023-06-10T08:05:10;5.95;;;5.38;;
12363;SDS011;6246;50.826;4.712;2023-06-10T08:07:36;5.70;;;5.20;;
12363;SDS011;6246;50.826;4.712;2023-06-10T08:10:02;5.60;;;4.68;;
12363;SDS011;6246;50.826;4.712;2023-06-10T08:12:29;5.30;;;4.78;;
12363;SDS011;6246;50.826;4.712;2023-06-10T08:14:55;5.68;;;5.18;;
12363;SDS011;6246;50.826;4.712;2023-06-10T08:17:21;6.15;;;4.97;;
12363;SDS011;6246;50.826;4.712;2023-06-10T08:19:48;5.47;;;4.97;;
12363;SDS011;6246;50.826;4.712;2023-06-10T08:22:14;5.18;;;4.78;;
12363;SDS011;6246;50.826;4.712;2023-06-10T08:24:40;5.35;;;4.85;;
12363;SDS011;6246;50.826;4.712;2023-06-10T08:27:06;5.40;;;5.00;;
12363;SDS011;6246;50.826;4.712;2023-06-10T08:29:32;4.80;;;4.40;;
12363;SDS011;6246;50.826;4.712;2023-06-10T08:31:58;5.32;;;4.88;;
12363;SDS011;6246;50.826;4.712;2023-06-10T08:34:24;6.55;;;5.28;;
12363;SDS011;6246;50.826;4.712;2023-06-10T08:36:50;5.20;;;4.80;;
12363;SDS011;6246;50.826;4.712;2023-06-10T08:39:18;5.38;;;4.95;;
12363;SDS011;6246;50.826;4.712;2023-06-10T08:41:46;5.63;;;5.13;;
12363;SDS011;6246;50.826;4.712;2023-06-10T08:44:19;5.50;;;5.00;;
12363;SDS011;6246;50.826;4.712;2023-06-10T08:46:47;5.22;;;4.72;;
12363;SDS011;6246;50.826;4.712;2023-06-10T08:49:15;5.57;;;5.07;;
12363;SDS011;6246;50.826;4.712;2023-06-10T08:51:43;5.10;;;4.70;;
12363;SDS011;6246;50.826;4.712;2023-06-10T08:54:11;5.30;;;4.90;;
12363;SDS011;6246;50.826;4.712;2023-06-10T08:56:40;4.65;;;4.25;;
12363;SDS011;6246;50.826;4.712;2023-06-10T08:59:07;5.10;;;4.70;;
12363;SDS011;6246;50.826;4.712;2023-06-10T09:01:33;4.90;;;4.50;;
12363;SDS011;6246;50.826;4.712;2023-06-10T09:04:00;5.30;;;4.60;;
12363;SDS011;6246;50.826;4.712;2023-06-10T09:06:27;4.93;;;4.53;;
12363;SDS011;6246;50.826;4.712;2023-06-10T09:08:53;5.18;;;4.65;;
12363;SDS011;6246;50.826;4.712;2023-06-10T09:11:19;5.00;;;4.60;;
12363;SDS011;6246;50.826;4.712;2023-06-10T09:13:45;5.25;;;4.85;;
12363;SDS011;6246;50.826;4.712;2023-06-10T09:16:11;5.18;;;4.72;;
12363;SDS011;6246;50.826;4.712;2023-06-10T09:18:38;4.78;;;4.38;;
12363;SDS011;6246;50.826;4.712;2023-06-10T09:21:05;5.00;;;4.60;;
12363;SDS011;6246;50.826;4.712;2023-06-10T09:23:31;4.90;;;4.50;;
12363;SDS011;6246;50.826;4.712;2023-06-10T09:25:57;5.03;;;4.63;;
12363;SDS011;6246;50.826;4.712;2023-06-10T09:28:23;4.82;;;4.45;;
12363;SDS011;6246;50.826;4.712;2023-06-10T09:30:49;4.88;;;4.47;;
12363;SDS011;6246;50.826;4.712;2023-06-10T09:33:15;4.75;;;4.35;;
12363;SDS011;6246;50.826;4.712;2023-06-10T09:35:45;5.05;;;4.65;;
12363;SDS011;6246;50.826;4.712;2023-06-10T09:38:12;5.30;;;4.80;;
12363;SDS011;6246;50.826;4.712;2023-06-10T09:40:52;5.20;;;4.72;;
12363;SDS011;6246;50.826;4.712;2023-06-10T09:43:18;4.72;;;4.32;;
12363;SDS011;6246;50.826;4.712;2023-06-10T09:45:47;4.53;;;4.22;;
12363;SDS011;6246;50.826;4.712;2023-06-10T09:48:13;4.32;;;4.03;;
12363;SDS011;6246;50.826;4.712;2023-06-10T09:50:42;4.60;;;4.20;;
12363;SDS011;6246;50.826;4.712;2023-06-10T09:53:09;4.88;;;4.47;;
12363;SDS011;6246;50.826;4.712;2023-06-10T09:55:37;4.47;;;4.18;;
12363;SDS011;6246;50.826;4.712;2023-06-10T09:58:03;4.80;;;4.40;;
12363;SDS011;6246;50.826;4.712;2023-06-10T10:00:31;4.55;;;4.25;;
12363;SDS011;6246;50.826;4.712;2023-06-10T10:02:58;4.60;;;4.30;;
12363;SDS011;6246;50.826;4.712;2023-06-10T10:05:24;4.78;;;4.38;;
12363;SDS011;6246;50.826;4.712;2023-06-10T10:07:50;4.50;;;4.10;;
12363;SDS011;6246;50.826;4.712;2023-06-10T10:10:18;4.60;;;4.30;;
12363;SDS011;6246;50.826;4.712;2023-06-10T10:12:45;4.70;;;4.30;;
12363;SDS011;6246;50.826;4.712;2023-06-10T10:15:12;4.70;;;4.30;;
12363;SDS011;6246;50.826;4.712;2023-06-10T10:17:44;4.55;;;4.15;;
12363;SDS011;6246;50.826;4.712;2023-06-10T10:20:12;4.20;;;3.90;;
12363;SDS011;6246;50.826;4.712;2023-06-10T10:22:39;4.50;;;4.20;;
12363;SDS011;6246;50.826;4.712;2023-06-10T10:25:16;4.50;;;4.20;;
12363;SDS011;6246;50.826;4.712;2023-06-10T10:30:11;4.63;;;4.22;;
12363;SDS011;6246;50.826;4.712;2023-06-10T10:35:19;4.53;;;4.22;;
12363;SDS011;6246;50.826;4.712;2023-06-10T10:37:48;4.40;;;4.00;;
12363;SDS011;6246;50.826;4.712;2023-06-10T10:40:14;4.32;;;4.03;;
12363;SDS011;6246;50.826;4.712;2023-06-10T10:42:40;4.60;;;4.20;;
12363;SDS011;6246;50.826;4.712;2023-06-10T10:45:06;4.20;;;3.75;;
12363;SDS011;6246;50.826;4.712;2023-06-10T10:47:33;4.10;;;3.80;;
12363;SDS011;6246;50.826;4.712;2023-06-10T10:50:00;4.20;;;3.90;;
12363;SDS011;6246;50.826;4.712;2023-06-10T10:52:28;4.35;;;3.95;;
12363;SDS011;6246;50.826;4.712;2023-06-10T10:55:14;4.65;;;4.25;;
12363;SDS011;6246;50.826;4.712;2023-06-10T10:57:40;4.43;;;4.13;;
12363;SDS011;6246;50.826;4.712;2023-06-10T11:00:06;3.70;;;3.50;;
12363;SDS011;6246;50.826;4.712;2023-06-10T11:04:59;4.10;;;3.80;;
12363;SDS011;6246;50.826;4.712;2023-06-10T11:07:26;4.45;;;4.05;;
12363;SDS011;6246;50.826;4.712;2023-06-10T11:10:02;4.22;;;3.92;;
12363;SDS011;6246;50.826;4.712;2023-06-10T11:12:41;4.05;;;3.75;;
12363;SDS011;6246;50.826;4.712;2023-06-10T11:15:07;4.32;;;4.03;;
12363;SDS011;6246;50.826;4.712;2023-06-10T11:17:34;4.32;;;4.03;;
12363;SDS011;6246;50.826;4.712;2023-06-10T11:20:00;4.20;;;3.90;;
12363;SDS011;6246;50.826;4.712;2023-06-10T11:22:25;4.00;;;3.70;;
12363;SDS011;6246;50.826;4.712;2023-06-10T11:24:51;3.95;;;3.65;;
12363;SDS011;6246;50.826;4.712;2023-06-10T11:27:18;4.20;;;3.90;;
12363;SDS011;6246;50.826;4.712;2023-06-10T11:29:57;4.20;;;3.90;;
12363;SDS011;6246;50.826;4.712;2023-06-10T11:32:31;4.45;;;4.05;;
12363;SDS011;6246;50.826;4.712;2023-06-10T11:34:58;4.03;;;3.72;;
12363;SDS011;6246;50.826;4.712;2023-06-10T11:37:24;4.05;;;3.75;;
12363;SDS011;6246;50.826;4.712;2023-06-10T11:39:53;4.10;;;3.80;;
12363;SDS011;6246;50.826;4.712;2023-06-10T11:42:19;4.18;;;3.88;;
12363;SDS011;6246;50.826;4.712;2023-06-10T11:44:52;4.40;;;4.10;;
12363;SDS011;6246;50.826;4.712;2023-06-10T11:47:18;4.38;;;3.95;;
12363;SDS011;6246;50.826;4.712;2023-06-10T11:49:45;4.10;;;3.80;;
12363;SDS011;6246;50.826;4.712;2023-06-10T11:52:12;4.18;;;3.88;;
12363;SDS011;6246;50.826;4.712;2023-06-10T11:54:38;4.13;;;3.83;;
12363;SDS011;6246;50.826;4.712;2023-06-10T11:57:04;3.78;;;3.58;;
12363;SDS011;6246;50.826;4.712;2023-06-10T11:59:33;3.67;;;3.40;;
12363;SDS011;6246;50.826;4.712;2023-06-10T12:01:59;4.13;;;3.83;;
12363;SDS011;6246;50.826;4.712;2023-06-10T12:04:25;3.90;;;3.60;;
12363;SDS011;6246;50.826;4.712;2023-06-10T12:06:54;4.20;;;3.90;;
12363;SDS011;6246;50.826;4.712;2023-06-10T12:09:27;4.03;;;3.72;;
12363;SDS011;6246;50.826;4.712;2023-06-10T12:11:58;4.03;;;3.72;;
12363;SDS011;6246;50.826;4.712;2023-06-10T12:17:09;3.95;;;3.65;;
12363;SDS011;6246;50.826;4.712;2023-06-10T12:19:38;3.72;;;3.53;;
12363;SDS011;6246;50.826;4.712;2023-06-10T12:22:05;4.43;;;3.67;;
12363;SDS011;6246;50.826;4.712;2023-06-10T12:24:31;3.72;;;3.45;;
12363;SDS011;6246;50.826;4.712;2023-06-10T12:26:57;3.75;;;3.47;;
12363;SDS011;6246;50.826;4.712;2023-06-10T12:29:24;4.10;;;3.80;;
12363;SDS011;6246;50.826;4.712;2023-06-10T12:34:19;3.50;;;3.25;;
12363;SDS011;6246;50.826;4.712;2023-06-10T12:36:49;3.97;;;3.67;;
12363;SDS011;6246;50.826;4.712;2023-06-10T12:39:15;4.10;;;3.80;;
12363;SDS011;6246;50.826;4.712;2023-06-10T12:41:46;3.80;;;3.50;;
12363;SDS011;6246;50.826;4.712;2023-06-10T12:44:13;4.05;;;3.42;;
12363;SDS011;6246;50.826;4.712;2023-06-10T12:46:39;4.00;;;3.70;;
12363;SDS011;6246;50.826;4.712;2023-06-10T12:49:05;3.97;;;3.67;;
12363;SDS011;6246;50.826;4.712;2023-06-10T12:51:31;3.88;;;3.58;;
12363;SDS011;6246;50.826;4.712;2023-06-10T12:53:59;3.90;;;3.60;;
12363;SDS011;6246;50.826;4.712;2023-06-10T12:56:25;3.60;;;3.40;;
12363;SDS011;6246;50.826;4.712;2023-06-10T12:58:51;4.05;;;3.65;;
12363;SDS011;6246;50.826;4.712;2023-06-10T13:01:17;3.97;;;3.75;;
12363;SDS011;6246;50.826;4.712;2023-06-10T13:03:43;4.00;;;3.70;;
12363;SDS011;6246;50.826;4.712;2023-06-10T13:06:09;3.25;;;3.05;;
12363;SDS011;6246;50.826;4.712;2023-06-10T13:08:35;3.50;;;3.22;;
12363;SDS011;6246;50.826;4.712;2023-06-10T13:11:01;3.80;;;3.50;;
12363;SDS011;6246;50.826;4.712;2023-06-10T13:13:27;3.83;;;3.53;;
12363;SDS011;6246;50.826;4.712;2023-06-10T13:15:53;3.97;;;3.67;;
12363;SDS011;6246;50.826;4.712;2023-06-10T13:18:19;3.67;;;3.47;;
12363;SDS011;6246;50.826;4.712;2023-06-10T13:20:45;3.40;;;3.20;;
12363;SDS011;6246;50.826;4.712;2023-06-10T13:23:12;4.13;;;3.83;;
12363;SDS011;6246;50.826;4.712;2023-06-10T13:25:38;3.63;;;3.40;;
12363;SDS011;6246;50.826;4.712;2023-06-10T13:28:05;3.80;;;3.50;;
12363;SDS011;6246;50.826;4.712;2023-06-10T13:30:32;4.10;;;3.80;;
12363;SDS011;6246;50.826;4.712;2023-06-10T13:32:58;3.50;;;3.30;;
12363;SDS011;6246;50.826;4.712;2023-06-10T13:35:24;3.35;;;3.15;;
12363;SDS011;6246;50.826;4.712;2023-06-10T13:37:50;3.42;;;3.22;;
12363;SDS011;6246;50.826;4.712;2023-06-10T13:40:16;3.70;;;3.47;;
12363;SDS011;6246;50.826;4.712;2023-06-10T13:42:44;3.90;;;3.63;;
12363;SDS011;6246;50.826;4.712;2023-06-10T13:45:15;3.88;;;3.58;;
12363;SDS011;6246;50.826;4.712;2023-06-10T13:47:42;3.90;;;3.60;;
12363;SDS011;6246;50.826;4.712;2023-06-10T13:50:08;3.60;;;3.30;;
12363;SDS011;6246;50.826;4.712;2023-06-10T13:52:34;3.67;;;3.47;;
12363;SDS011;6246;50.826;4.712;2023-06-10T13:55:00;4.18;;;3.88;;
12363;SDS011;6246;50.826;4.712;2023-06-10T13:57:26;4.05;;;3.65;;
12363;SDS011;6246;50.826;4.712;2023-06-10T13:59:52;3.58;;;3.28;;
12363;SDS011;6246;50.826;4.712;2023-06-10T14:02:18;3.78;;;3.50;;
12363;SDS011;6246;50.826;4.712;2023-06-10T14:04:44;3.88;;;3.63;;
12363;SDS011;6246;50.826;4.712;2023-06-10T14:07:10;3.80;;;3.50;;
12363;SDS011;6246;50.826;4.712;2023-06-10T14:09:36;3.70;;;3.50;;
12363;SDS011;6246;50.826;4.712;2023-06-10T14:12:02;3.60;;;3.30;;
12363;SDS011;6246;50.826;4.712;2023-06-10T14:14:28;3.40;;;3.15;;
12363;SDS011;6246;50.826;4.712;2023-06-10T14:16:55;3.70;;;3.50;;
12363;SDS011;6246;50.826;4.712;2023-06-10T14:19:21;4.40;;;3.58;;
12363;SDS011;6246;50.826;4.712;2023-06-10T14:21:47;3.53;;;3.33;;
12363;SDS011;6246;50.826;4.712;2023-06-10T14:24:14;3.63;;;3.33;;
12363;SDS011;6246;50.826;4.712;2023-06-10T14:26:40;3.95;;;3.65;;
12363;SDS011;6246;50.826;4.712;2023-06-10T14:29:06;3.65;;;3.45;;
12363;SDS011;6246;50.826;4.712;2023-06-10T14:31:33;3.88;;;3.63;;
12363;SDS011;6246;50.826;4.712;2023-06-10T14:33:59;3.60;;;3.40;;
12363;SDS011;6246;50.826;4.712;2023-06-10T14:36:25;3.65;;;3.35;;
12363;SDS011;6246;50.826;4.712;2023-06-10T14:38:51;3.58;;;3.25;;
12363;SDS011;6246;50.826;4.712;2023-06-10T14:41:18;3.80;;;3.50;;
12363;SDS011;6246;50.826;4.712;2023-06-10T14:43:44;3.75;;;3.45;;
12363;SDS011;6246;50.826;4.712;2023-06-10T14:46:10;3.28;;;3.08;;
12363;SDS011;6246;50.826;4.712;2023-06-10T14:48:36;3.60;;;3.30;;
12363;SDS011;6246;50.826;4.712;2023-06-10T14:51:02;3.67;;;3.40;;
12363;SDS011;6246;50.826;4.712;2023-06-10T14:53:28;3.90;;;3.60;;
12363;SDS011;6246;50.826;4.712;2023-06-10T14:55:54;4.05;;;3.75;;
12363;SDS011;6246;50.826;4.712;2023-06-10T14:58:20;3.90;;;3.50;;
12363;SDS011;6246;50.826;4.712;2023-06-10T15:00:46;3.53;;;3.33;;
12363;SDS011;6246;50.826;4.712;2023-06-10T15:03:12;3.75;;;3.55;;
12363;SDS011;6246;50.826;4.712;2023-06-10T15:05:38;3.50;;;3.28;;
12363;SDS011;6246;50.826;4.712;2023-06-10T15:08:04;3.95;;;3.65;;
12363;SDS011;6246;50.826;4.712;2023-06-10T15:10:31;3.67;;;3.38;;
12363;SDS011;6246;50.826;4.712;2023-06-10T15:12:57;3.53;;;3.33;;
12363;SDS011;6246;50.826;4.712;2023-06-10T15:15:23;3.25;;;3.05;;